Time,TemperatureF,DewpointF,PressureIn,WindDirection,WindDirectionDegrees,WindSpeedMPH,WindSpeedGustMPH,Humidity,HourlyPrecipIn,Conditions,Clouds,dailyrainin,SoftwareType,DateUTC
2013-10-05 00:01:00,72.3,64.7,29.94,NNE,22,1.2,1.2,77,0.00,CLR,,0.00,WeatherDisplay:10.37,2013-10-05 04:01:00,
2013-10-05 00:02:00,72.3,64.7,29.94,NNE,22,0.0,0.4,77,0.00,CLR,,0.00,WeatherDisplay:10.37,2013-10-05 04:02:00,
2013-10-05 00:06:00,72.3,64.7,29.94,NNE,22,0.0,0.4,77,0.00,CLR,,0.00,WeatherDisplay:10.37,2013-10-05 04:06:00,
2013-10-05 00:11:00,72.1,64.5,29.95,NNE,22,0.0,0.4,77,0.00,CLR,,0.00,WeatherDisplay:10.37,2013-10-05 04:11:00,
2013-10-05 00:16:00,72.0,64.7,29.95,North,0,0.0,0.3,78,0.00,BKN,,0.00,WeatherDisplay:10.37,2013-10-05 04:16:00,
2013-10-05 00:17:00,72.0,64.7,29.95,NNW,338,0.0,0.3,78,0.00,BKN,,0.00,WeatherDisplay:10.37,2013-10-05 04:17:00,
2013-10-05 00:22:00,71.8,64.5,29.95,NW,315,2.3,2.3,78,0.00,BKN,,0.00,WeatherDisplay:10.37,2013-10-05 04:22:00,
2013-10-05 00:27:00,71.6,64.4,29.95,West,270,0.0,0.4,78,0.00,BKN,,0.00,WeatherDisplay:10.37,2013-10-05 04:27:00,
2013-10-05 00:32:00,71.8,64.5,29.95,NW,315,1.2,1.2,78,0.00,BKN,,0.00,WeatherDisplay:10.37,2013-10-05 04:32:00,
2013-10-05 00:37:00,71.4,64.6,29.95,WNW,292,0.0,0.0,79,0.00,BKN,,0.00,WeatherDisplay:10.37,2013-10-05 04:37:00,
2013-10-05 00:42:00,71.4,64.6,29.95,SW,225,0.0,0.0,79,0.00,BKN,,0.00,WeatherDisplay:10.37,2013-10-05 04:42:00,
2013-10-05 00:47:00,71.4,64.6,29.96,NE,45,0.0,0.0,79,0.00,BKN,,0.00,WeatherDisplay:10.37,2013-10-05 04:47:00,
2013-10-05 00:52:00,71.4,64.6,29.96,SW,225,0.0,0.0,79,0.00,BKN,,0.00,WeatherDisplay:10.37,2013-10-05 04:52:00,
2013-10-05 00:57:00,71.2,64.4,29.96,WNW,292,0.0,0.0,79,0.00,BKN,,0.00,WeatherDisplay:10.37,2013-10-05 04:57:00,
2013-10-05 01:02:00,71.4,64.6,29.96,NW,315,0.0,0.0,79,0.00,BKN,,0.00,WeatherDisplay:10.37,2013-10-05 05:02:00,
2013-10-05 01:07:00,71.2,64.4,29.95,NW,315,1.4,1.4,79,0.00,BKN,,0.00,WeatherDisplay:10.37,2013-10-05 05:07:00,
2013-10-05 01:12:00,71.4,64.6,29.95,NW,315,2.7,2.7,79,0.00,BKN,,0.00,WeatherDisplay:10.37,2013-10-05 05:12:00,
2013-10-05 01:17:00,71.6,64.7,29.95,NW,315,2.3,2.3,79,0.00,BKN,,0.00,WeatherDisplay:10.37,2013-10-05 05:17:00,
2013-10-05 01:22:00,71.6,64.7,29.95,WNW,292,2.3,2.3,79,0.00,BKN,,0.00,WeatherDisplay:10.37,2013-10-05 05:22:00,
2013-10-05 01:27:00,71.6,64.7,29.96,NW,315,0.0,0.6,79,0.00,BKN,,0.00,WeatherDisplay:10.37,2013-10-05 05:27:00,
2013-10-05 01:32:00,71.6,65.1,29.96,NNE,22,1.3,1.3,80,0.00,BKN,,0.00,WeatherDisplay:10.37,2013-10-05 05:32:00,
2013-10-05 01:37:00,71.6,65.1,29.96,NW,315,1.6,1.6,80,0.00,BKN,,0.00,WeatherDisplay:10.37,2013-10-05 05:37:00,
2013-10-05 01:42:00,71.6,65.1,29.96,NW,315,0.0,0.1,80,0.00,BKN,,0.00,WeatherDisplay:10.37,2013-10-05 05:42:00,
2013-10-05 01:47:00,71.4,64.9,29.97,WNW,292,0.0,0.1,80,0.00,BKN,,0.00,WeatherDisplay:10.37,2013-10-05 05:47:00,
2013-10-05 01:52:00,71.4,64.9,29.97,NW,315,0.0,0.0,80,0.00,BKN,,0.00,WeatherDisplay:10.37,2013-10-05 05:52:00,
2013-10-05 01:57:00,71.4,64.9,29.97,NNW,338,0.0,0.0,80,0.00,BKN,,0.00,WeatherDisplay:10.37,2013-10-05 05:57:00,
2013-10-05 02:02:00,71.4,64.9,29.97,WNW,292,0.0,0.0,80,0.00,BKN,,0.00,WeatherDisplay:10.37,2013-10-05 06:02:00,
2013-10-05 02:07:00,71.2,64.8,29.96,West,270,0.0,0.0,80,0.00,BKN,,0.00,WeatherDisplay:10.37,2013-10-05 06:07:00,
2013-10-05 02:12:00,71.4,65.3,29.96,SSW,202,0.0,0.0,81,0.00,BKN,,0.00,WeatherDisplay:10.37,2013-10-05 06:12:00,
2013-10-05 02:17:00,71.2,65.1,29.96,South,180,0.0,0.0,81,0.00,BKN,,0.00,WeatherDisplay:10.37,2013-10-05 06:17:00,
2013-10-05 02:22:00,71.1,64.9,29.96,WNW,292,0.0,0.0,81,0.00,BKN,,0.00,WeatherDisplay:10.37,2013-10-05 06:22:00,
2013-10-05 02:27:00,70.9,64.8,29.96,North,0,0.0,0.0,81,0.00,BKN,,0.00,WeatherDisplay:10.37,2013-10-05 06:27:00,
2013-10-05 02:32:00,70.9,64.8,29.96,NNW,338,0.0,0.0,81,0.00,BKN,,0.00,WeatherDisplay:10.37,2013-10-05 06:32:00,
2013-10-05 02:37:00,70.7,64.6,29.96,NW,315,0.0,0.0,81,0.00,BKN,,0.00,WeatherDisplay:10.37,2013-10-05 06:37:00,
2013-10-05 02:42:00,70.7,64.6,29.96,WNW,292,0.0,0.0,81,0.00,BKN,,0.00,WeatherDisplay:10.37,2013-10-05 06:42:00,
2013-10-05 02:47:00,70.5,64.4,29.96,NW,315,0.0,0.0,81,0.00,BKN,,0.00,WeatherDisplay:10.37,2013-10-05 06:47:00,
2013-10-05 02:52:00,70.7,64.9,29.96,NE,45,0.0,0.0,82,0.00,BKN,,0.00,WeatherDisplay:10.37,2013-10-05 06:52:00,
2013-10-05 02:57:00,70.7,64.9,29.96,NW,315,0.0,0.0,82,0.00,BKN,,0.00,WeatherDisplay:10.37,2013-10-05 06:57:00,
2013-10-05 03:02:00,70.5,64.8,29.96,NNW,338,1.3,1.3,82,0.00,BKN,,0.00,WeatherDisplay:10.37,2013-10-05 07:02:00,
2013-10-05 03:07:00,70.5,65.1,29.96,NNW,338,1.2,1.2,83,0.00,BKN,,0.00,WeatherDisplay:10.37,2013-10-05 07:07:00,
2013-10-05 03:12:00,70.7,65.3,29.96,WSW,248,1.2,1.2,83,0.00,BKN,,0.00,WeatherDisplay:10.37,2013-10-05 07:12:00,
2013-10-05 03:17:00,70.5,65.1,29.96,West,270,2.3,2.3,83,0.00,BKN,,0.00,WeatherDisplay:10.37,2013-10-05 07:17:00,
2013-10-05 03:22:00,70.5,65.1,29.96,SSE,158,0.0,0.4,83,0.00,BKN,,0.00,WeatherDisplay:10.37,2013-10-05 07:22:00,
2013-10-05 03:27:00,70.3,64.9,29.96,East,90,1.2,1.2,83,0.00,BKN,,0.00,WeatherDisplay:10.37,2013-10-05 07:27:00,
2013-10-05 03:32:00,70.3,64.9,29.96,ESE,112,0.0,0.3,83,0.00,BKN,,0.00,WeatherDisplay:10.37,2013-10-05 07:32:00,
2013-10-05 03:37:00,70.3,64.9,29.96,NW,315,1.2,1.2,83,0.00,BKN,,0.00,WeatherDisplay:10.37,2013-10-05 07:37:00,
2013-10-05 03:42:00,70.3,64.9,29.96,West,270,0.0,0.1,83,0.00,BKN,,0.00,WeatherDisplay:10.37,2013-10-05 07:42:00,
2013-10-05 03:47:00,70.2,64.8,29.97,ENE,68,0.0,0.1,83,0.00,BKN,,0.00,WeatherDisplay:10.37,2013-10-05 07:47:00,
2013-10-05 03:52:00,70.2,64.8,29.97,ENE,68,0.0,0.3,83,0.00,BKN,,0.00,WeatherDisplay:10.37,2013-10-05 07:52:00,
2013-10-05 03:57:00,70.2,64.8,29.97,East,90,2.3,2.3,83,0.00,BKN,,0.00,WeatherDisplay:10.37,2013-10-05 07:57:00,
2013-10-05 04:02:00,70.3,64.9,29.97,NNE,22,2.3,2.3,83,0.00,BKN,,0.00,WeatherDisplay:10.37,2013-10-05 08:02:00,
2013-10-05 04:07:00,70.2,64.8,29.96,NNW,338,0.0,0.6,83,0.00,BKN,,0.00,WeatherDisplay:10.37,2013-10-05 08:07:00,
2013-10-05 04:12:00,70.0,64.6,29.96,NW,315,0.0,0.5,83,0.00,BKN,,0.00,WeatherDisplay:10.37,2013-10-05 08:12:00,
2013-10-05 04:17:00,70.0,64.6,29.96,NW,315,2.3,2.3,83,0.00,BKN,,0.00,WeatherDisplay:10.37,2013-10-05 08:17:00,
2013-10-05 04:22:00,69.8,64.4,29.96,NW,315,3.5,3.5,83,0.00,BKN,,0.00,WeatherDisplay:10.37,2013-10-05 08:22:00,
2013-10-05 04:27:00,69.8,64.4,29.98,NW,315,3.5,3.5,83,0.00,BKN,,0.00,WeatherDisplay:10.37,2013-10-05 08:27:00,
2013-10-05 04:32:00,70.0,64.9,29.98,ENE,68,0.0,1.3,84,0.00,BKN,,0.00,WeatherDisplay:10.37,2013-10-05 08:32:00,
2013-10-05 04:37:00,69.6,64.9,29.98,NW,315,0.0,0.4,85,0.00,BKN,,0.00,WeatherDisplay:10.37,2013-10-05 08:37:00,
2013-10-05 04:42:00,69.4,64.7,29.98,WNW,292,1.2,1.2,85,0.00,BKN,,0.00,WeatherDisplay:10.37,2013-10-05 08:42:00,
2013-10-05 04:47:00,69.1,64.4,29.98,NW,315,0.0,0.1,85,0.00,BKN,,0.00,WeatherDisplay:10.37,2013-10-05 08:47:00,
2013-10-05 04:52:00,69.3,64.6,29.98,NNE,22,0.0,0.0,85,0.00,BKN,,0.00,WeatherDisplay:10.37,2013-10-05 08:52:00,
2013-10-05 04:57:00,68.9,64.5,29.98,NW,315,0.0,0.0,86,0.00,BKN,,0.00,WeatherDisplay:10.37,2013-10-05 08:57:00,
2013-10-05 05:02:00,68.9,64.5,29.98,NNE,22,2.3,2.3,86,0.00,BKN,,0.00,WeatherDisplay:10.37,2013-10-05 09:02:00,
2013-10-05 05:07:00,68.7,64.4,29.98,West,270,0.0,0.4,86,0.00,BKN,,0.00,WeatherDisplay:10.37,2013-10-05 09:07:00,
2013-10-05 05:12:00,68.7,64.4,29.98,NNW,338,0.0,0.4,86,0.00,BKN,,0.00,WeatherDisplay:10.37,2013-10-05 09:12:00,
2013-10-05 05:17:00,68.7,64.4,29.98,NNW,338,0.0,0.3,86,0.00,BKN,,0.00,WeatherDisplay:10.37,2013-10-05 09:17:00,
2013-10-05 05:22:00,68.7,64.4,29.98,North,0,1.2,1.2,86,0.00,BKN,,0.00,WeatherDisplay:10.37,2013-10-05 09:22:00,
2013-10-05 05:27:00,68.5,64.2,29.98,WSW,248,0.0,0.1,86,0.00,BKN,,0.00,WeatherDisplay:10.37,2013-10-05 09:27:00,
2013-10-05 05:32:00,68.4,64.0,29.98,ENE,68,2.3,2.3,86,0.00,BKN,,0.00,WeatherDisplay:10.37,2013-10-05 09:32:00,
2013-10-05 05:37:00,68.5,64.2,29.98,ENE,68,0.0,0.3,86,0.00,BKN,,0.00,WeatherDisplay:10.37,2013-10-05 09:37:00,
2013-10-05 05:42:00,68.4,64.0,29.98,NW,315,2.3,2.3,86,0.00,BKN,,0.00,WeatherDisplay:10.37,2013-10-05 09:42:00,
2013-10-05 05:47:00,68.2,63.8,29.98,ENE,68,0.0,0.1,86,0.00,BKN,,0.00,WeatherDisplay:10.37,2013-10-05 09:47:00,
2013-10-05 05:52:00,68.2,63.8,29.98,NE,45,0.0,0.0,86,0.00,BKN,,0.00,WeatherDisplay:10.37,2013-10-05 09:52:00,
2013-10-05 05:57:00,68.0,64.0,29.98,West,270,0.0,0.0,87,0.00,BKN,,0.00,WeatherDisplay:10.37,2013-10-05 09:57:00,
2013-10-05 06:02:00,68.0,64.0,29.98,NW,315,1.2,0.0,87,0.00,BKN,,0.00,WeatherDisplay:10.37,2013-10-05 10:02:00,
2013-10-05 06:07:00,68.0,64.0,29.99,NW,315,0.0,0.0,87,0.00,BKN,,0.00,WeatherDisplay:10.37,2013-10-05 10:07:00,
2013-10-05 06:12:00,67.8,63.8,29.99,North,0,0.0,0.0,87,0.00,BKN,,0.00,WeatherDisplay:10.37,2013-10-05 10:12:00,
2013-10-05 06:17:00,67.8,63.8,29.99,NNW,338,0.0,0.0,87,0.00,BKN,,0.00,WeatherDisplay:10.37,2013-10-05 10:17:00,
2013-10-05 06:22:00,67.8,63.8,29.99,NW,315,0.0,0.0,87,0.00,BKN,,0.00,WeatherDisplay:10.37,2013-10-05 10:22:00,
2013-10-05 06:27:00,67.8,63.8,29.99,West,270,0.0,0.0,87,0.00,BKN,,0.00,WeatherDisplay:10.37,2013-10-05 10:27:00,
2013-10-05 06:32:00,67.5,63.5,29.99,SSW,202,0.0,0.0,87,0.00,BKN,,0.00,WeatherDisplay:10.37,2013-10-05 10:32:00,
2013-10-05 06:37:00,67.5,63.5,29.99,South,180,0.0,0.0,87,0.00,BKN,,0.00,WeatherDisplay:10.37,2013-10-05 10:37:00,
2013-10-05 06:42:00,67.3,63.3,29.99,West,270,0.0,0.0,87,0.00,BKN,,0.00,WeatherDisplay:10.37,2013-10-05 10:42:00,
2013-10-05 06:47:00,67.3,63.3,29.99,NW,315,0.0,0.0,87,0.00,BKN,,0.00,WeatherDisplay:10.37,2013-10-05 10:47:00,
2013-10-05 06:52:00,67.3,63.3,29.99,NW,315,0.0,0.0,87,0.00,BKN,,0.00,WeatherDisplay:10.37,2013-10-05 10:52:00,
2013-10-05 06:57:00,67.1,63.1,29.99,NW,315,0.0,0.0,87,0.00,BKN,,0.00,WeatherDisplay:10.37,2013-10-05 10:57:00,
2013-10-05 07:02:00,66.9,62.9,29.99,NW,315,0.0,0.0,87,0.00,BKN,,0.00,WeatherDisplay:10.37,2013-10-05 11:02:00,
2013-10-05 07:07:00,67.1,63.1,30.00,NW,315,0.0,0.0,87,0.00,BKN,,0.00,WeatherDisplay:10.37,2013-10-05 11:07:00,
2013-10-05 07:12:00,67.1,63.1,30.00,NW,315,0.0,0.0,87,0.00,BKN,,0.00,WeatherDisplay:10.37,2013-10-05 11:12:00,
2013-10-05 07:17:00,67.1,63.1,30.00,North,0,0.0,0.0,87,0.00,BKN,,0.00,WeatherDisplay:10.37,2013-10-05 11:17:00,
2013-10-05 07:22:00,66.9,62.9,30.00,NW,315,0.0,0.0,87,0.00,BKN,,0.00,WeatherDisplay:10.37,2013-10-05 11:22:00,
2013-10-05 07:27:00,66.9,62.9,30.00,NW,315,0.0,0.0,87,0.00,BKN,,0.00,WeatherDisplay:10.37,2013-10-05 11:27:00,
2013-10-05 07:32:00,66.7,62.7,30.00,ENE,68,0.0,0.0,87,0.00,BKN,,0.00,WeatherDisplay:10.37,2013-10-05 11:32:00,
2013-10-05 07:37:00,66.7,63.1,30.00,West,270,0.0,0.0,88,0.00,BKN,,0.00,WeatherDisplay:10.37,2013-10-05 11:37:00,
2013-10-05 07:42:00,66.9,63.2,30.00,South,180,0.0,0.0,88,0.00,BKN,,0.00,WeatherDisplay:10.37,2013-10-05 11:42:00,
2013-10-05 07:47:00,66.9,63.2,30.00,SSW,202,0.0,0.0,88,0.00,BKN,,0.00,WeatherDisplay:10.37,2013-10-05 11:47:00,
2013-10-05 07:52:00,67.1,63.4,30.00,NNW,338,1.2,0.0,88,0.00,BKN,,0.00,WeatherDisplay:10.37,2013-10-05 11:52:00,
2013-10-05 07:57:00,67.3,63.6,30.00,NW,315,0.0,0.0,88,0.00,BKN,,0.00,WeatherDisplay:10.37,2013-10-05 11:57:00,
2013-10-05 08:02:00,67.3,63.6,30.00,North,0,2.3,2.3,88,0.00,BKN,,0.00,WeatherDisplay:10.37,2013-10-05 12:02:00,
2013-10-05 08:07:00,67.1,63.1,30.01,NE,45,0.0,0.5,87,0.00,BKN,,0.00,WeatherDisplay:10.37,2013-10-05 12:07:00,
2013-10-05 08:12:00,67.3,63.3,30.01,NW,315,0.0,0.8,87,0.00,BKN,,0.00,WeatherDisplay:10.37,2013-10-05 12:12:00,
2013-10-05 08:17:00,67.3,63.3,30.01,West,270,1.2,1.2,87,0.00,BKN,,0.00,WeatherDisplay:10.37,2013-10-05 12:17:00,
2013-10-05 08:22:00,67.5,63.5,30.01,ENE,68,1.2,1.2,87,0.00,BKN,,0.00,WeatherDisplay:10.37,2013-10-05 12:22:00,
2013-10-05 08:27:00,67.5,63.5,30.02,ENE,68,0.0,0.0,87,0.00,BKN,,0.00,WeatherDisplay:10.37,2013-10-05 12:27:00,
2013-10-05 08:32:00,67.8,63.8,30.02,NE,45,1.5,1.5,87,0.00,BKN,,0.00,WeatherDisplay:10.37,2013-10-05 12:32:00,
2013-10-05 08:37:00,67.8,63.8,30.02,NNE,22,1.2,1.2,87,0.00,BKN,,0.00,WeatherDisplay:10.37,2013-10-05 12:37:00,
2013-10-05 08:42:00,67.8,63.8,30.02,NW,315,2.3,2.3,87,0.00,BKN,,0.00,WeatherDisplay:10.37,2013-10-05 12:42:00,
2013-10-05 08:47:00,67.6,63.6,30.02,NW,315,2.3,2.3,87,0.00,BKN,,0.00,WeatherDisplay:10.37,2013-10-05 12:47:00,
2013-10-05 08:52:00,67.8,63.8,30.02,NW,315,1.4,1.4,87,0.00,BKN,,0.00,WeatherDisplay:10.37,2013-10-05 12:52:00,
2013-10-05 08:57:00,67.8,63.8,30.02,SSE,158,0.0,0.4,87,0.00,BKN,,0.00,WeatherDisplay:10.37,2013-10-05 12:57:00,
2013-10-05 09:02:00,67.8,63.8,30.02,NNE,22,3.8,3.8,87,0.00,BKN,,0.00,WeatherDisplay:10.37,2013-10-05 13:02:00,
2013-10-05 09:07:00,67.8,63.8,30.03,NW,315,4.6,4.6,87,0.00,BKN,,0.00,WeatherDisplay:10.37,2013-10-05 13:07:00,
2013-10-05 09:12:00,67.8,63.8,30.03,NW,315,2.3,2.3,87,0.00,BKN,,0.00,WeatherDisplay:10.37,2013-10-05 13:12:00,
2013-10-05 09:17:00,67.8,63.8,30.03,NNW,338,3.3,3.3,87,0.00,BKN,,0.00,WeatherDisplay:10.37,2013-10-05 13:17:00,
2013-10-05 09:22:00,67.6,63.3,30.03,NNW,338,3.5,3.5,86,0.00,BKN,,0.00,WeatherDisplay:10.37,2013-10-05 13:22:00,
2013-10-05 09:27:00,67.6,63.6,30.03,NNE,22,2.3,2.3,87,0.00,BKN,,0.00,WeatherDisplay:10.37,2013-10-05 13:27:00,
2013-10-05 09:32:00,67.8,63.8,30.03,West,270,1.2,1.3,87,0.00,BKN,,0.00,WeatherDisplay:10.37,2013-10-05 13:32:00,
2013-10-05 09:37:00,67.8,63.5,30.03,NE,45,2.3,2.3,86,0.00,BKN,,0.00,WeatherDisplay:10.37,2013-10-05 13:37:00,
2013-10-05 09:42:00,67.8,63.5,30.03,NE,45,0.0,0.5,86,0.00,BKN,,0.00,WeatherDisplay:10.37,2013-10-05 13:42:00,
2013-10-05 09:47:00,68.0,63.7,30.03,NNE,22,3.4,3.4,86,0.00,BKN,,0.00,WeatherDisplay:10.37,2013-10-05 13:47:00,
2013-10-05 09:52:00,68.0,63.7,30.03,NNE,22,2.5,2.5,86,0.00,BKN,,0.00,WeatherDisplay:10.37,2013-10-05 13:52:00,
2013-10-05 09:57:00,68.2,63.8,30.03,West,270,3.9,3.9,86,0.00,BKN,,0.00,WeatherDisplay:10.37,2013-10-05 13:57:00,
2013-10-05 10:02:00,68.2,63.8,30.03,NNW,338,2.3,2.3,86,0.00,BKN,,0.00,WeatherDisplay:10.37,2013-10-05 14:02:00,
2013-10-05 10:07:00,68.0,63.7,30.03,North,0,2.3,2.3,86,0.00,BKN,,0.00,WeatherDisplay:10.37,2013-10-05 14:07:00,
2013-10-05 10:12:00,68.0,63.7,30.03,WNW,292,0.0,1.0,86,0.00,BKN,,0.00,WeatherDisplay:10.37,2013-10-05 14:12:00,
2013-10-05 10:17:00,68.2,63.8,30.03,NW,315,1.2,1.2,86,0.00,BKN,,0.00,WeatherDisplay:10.37,2013-10-05 14:17:00,
2013-10-05 10:22:00,68.5,64.2,30.03,North,0,0.0,0.3,86,0.00,BKN,,0.00,WeatherDisplay:10.37,2013-10-05 14:22:00,
2013-10-05 10:27:00,68.4,64.0,30.04,North,0,2.3,2.3,86,0.00,BKN,,0.00,WeatherDisplay:10.37,2013-10-05 14:27:00,
2013-10-05 10:32:00,68.4,64.0,30.04,NW,315,1.2,1.2,86,0.00,BKN,,0.00,WeatherDisplay:10.37,2013-10-05 14:32:00,
2013-10-05 10:37:00,68.5,64.2,30.04,NW,315,0.0,0.6,86,0.00,BKN,,0.00,WeatherDisplay:10.37,2013-10-05 14:37:00,
2013-10-05 10:42:00,68.5,63.8,30.04,NW,315,2.3,2.3,85,0.00,BKN,,0.00,WeatherDisplay:10.37,2013-10-05 14:42:00,
2013-10-05 10:47:00,68.5,63.8,30.03,WNW,292,0.0,0.4,85,0.00,BKN,,0.00,WeatherDisplay:10.37,2013-10-05 14:47:00,
2013-10-05 10:52:00,68.7,64.0,30.03,NNW,338,0.0,0.3,85,0.00,BKN,,0.00,WeatherDisplay:10.37,2013-10-05 14:52:00,
2013-10-05 10:57:00,68.7,64.0,30.03,ENE,68,0.0,0.1,85,0.00,BKN,,0.00,WeatherDisplay:10.37,2013-10-05 14:57:00,
2013-10-05 11:02:00,68.9,63.9,30.03,North,0,0.0,0.3,84,0.00,BKN,,0.00,WeatherDisplay:10.37,2013-10-05 15:02:00,
2013-10-05 11:07:00,68.9,64.2,30.04,NW,315,0.0,0.4,85,0.00,BKN,,0.00,WeatherDisplay:10.37,2013-10-05 15:07:00,
2013-10-05 11:12:00,69.3,64.6,30.04,NW,315,2.3,2.3,85,0.00,BKN,,0.00,WeatherDisplay:10.37,2013-10-05 15:12:00,
2013-10-05 11:17:00,69.3,64.2,30.04,NW,315,3.5,3.5,84,0.00,BKN,,0.00,WeatherDisplay:10.37,2013-10-05 15:17:00,
2013-10-05 11:22:00,69.4,64.4,30.04,NNE,22,0.0,0.6,84,0.00,BKN,,0.00,WeatherDisplay:10.37,2013-10-05 15:22:00,
2013-10-05 11:27:00,69.4,64.4,30.03,North,0,2.3,2.3,84,0.00,BKN,,0.00,WeatherDisplay:10.37,2013-10-05 15:27:00,
2013-10-05 11:32:00,69.6,64.6,30.03,NW,315,2.3,2.3,84,0.00,BKN,,0.00,WeatherDisplay:10.37,2013-10-05 15:32:00,
2013-10-05 11:37:00,70.0,64.6,30.03,ENE,68,2.3,2.3,83,0.00,BKN,,0.00,WeatherDisplay:10.37,2013-10-05 15:37:00,
2013-10-05 11:42:00,70.0,64.6,30.03,NW,315,3.5,3.5,83,0.00,BKN,,0.00,WeatherDisplay:10.37,2013-10-05 15:42:00,
2013-10-05 11:47:00,70.2,64.8,30.03,SSE,158,0.0,0.6,83,0.00,BKN,,0.00,WeatherDisplay:10.37,2013-10-05 15:47:00,
2013-10-05 11:52:00,70.3,64.9,30.03,SE,135,2.3,2.3,83,0.00,BKN,,0.00,WeatherDisplay:10.37,2013-10-05 15:52:00,
2013-10-05 11:57:00,70.7,65.3,30.03,NNW,338,2.3,2.3,83,0.00,BKN,,0.00,WeatherDisplay:10.37,2013-10-05 15:57:00,
2013-10-05 12:02:00,70.7,64.9,30.03,NW,315,0.0,0.6,82,0.00,BKN,,0.00,WeatherDisplay:10.37,2013-10-05 16:02:00,
2013-10-05 12:07:00,70.7,64.9,30.02,NW,315,0.0,0.6,82,0.00,BKN,,0.00,WeatherDisplay:10.37,2013-10-05 16:07:00,
2013-10-05 12:12:00,70.9,64.8,30.02,NNE,22,2.3,2.3,81,0.00,BKN,,0.00,WeatherDisplay:10.37,2013-10-05 16:12:00,
2013-10-05 12:17:00,71.4,65.3,30.02,NNE,22,2.3,2.3,81,0.00,BKN,,0.00,WeatherDisplay:10.37,2013-10-05 16:17:00,
2013-10-05 12:22:00,72.0,65.8,30.02,NE,45,0.0,0.8,81,0.00,BKN,,0.00,WeatherDisplay:10.37,2013-10-05 16:22:00,
2013-10-05 12:27:00,72.3,65.8,30.02,South,180,0.0,0.9,80,0.00,BKN,,0.00,WeatherDisplay:10.37,2013-10-05 16:27:00,
2013-10-05 12:32:00,72.7,66.2,30.02,NW,315,2.3,2.3,80,0.00,BKN,,0.00,WeatherDisplay:10.37,2013-10-05 16:32:00,
2013-10-05 12:37:00,73.0,66.5,30.02,SE,135,2.3,2.3,80,0.00,BKN,,0.00,WeatherDisplay:10.37,2013-10-05 16:37:00,
2013-10-05 12:42:00,73.4,66.1,30.02,NW,315,1.2,1.2,78,0.00,BKN,,0.00,WeatherDisplay:10.37,2013-10-05 16:42:00,
2013-10-05 12:47:00,73.6,65.9,30.01,East,90,1.2,1.2,77,0.00,BKN,,0.00,WeatherDisplay:10.37,2013-10-05 16:47:00,
2013-10-05 12:52:00,74.3,66.6,30.01,NNE,22,1.2,1.4,77,0.00,BKN,,0.00,WeatherDisplay:10.37,2013-10-05 16:52:00,
2013-10-05 12:57:00,74.7,66.6,30.01,WSW,248,2.3,2.3,76,0.00,BKN,,0.00,WeatherDisplay:10.37,2013-10-05 16:57:00,
2013-10-05 13:02:00,74.7,66.2,30.01,SSE,158,3.5,3.5,75,0.00,BKN,,0.00,WeatherDisplay:10.37,2013-10-05 17:02:00,
2013-10-05 13:07:00,74.7,66.2,30.00,NNW,338,3.5,3.5,75,0.00,BKN,,0.00,WeatherDisplay:10.37,2013-10-05 17:07:00,
2013-10-05 13:12:00,74.7,65.8,30.00,South,180,1.2,1.2,74,0.00,BKN,,0.00,WeatherDisplay:10.37,2013-10-05 17:12:00,
2013-10-05 13:17:00,74.7,65.4,30.00,South,180,2.3,2.3,73,0.00,BKN,,0.00,WeatherDisplay:10.37,2013-10-05 17:17:00,
2013-10-05 13:22:00,75.0,66.2,30.00,East,90,2.3,2.3,74,0.00,BKN,,0.00,WeatherDisplay:10.37,2013-10-05 17:22:00,
2013-10-05 13:27:00,75.0,66.2,29.99,NW,315,2.3,2.3,74,0.00,BKN,,0.00,WeatherDisplay:10.37,2013-10-05 17:27:00,
2013-10-05 13:32:00,75.2,65.9,29.99,South,180,4.6,4.6,73,0.00,BKN,,0.00,WeatherDisplay:10.37,2013-10-05 17:32:00,
2013-10-05 13:37:00,75.4,66.1,29.99,SE,135,3.5,3.5,73,0.00,BKN,,0.00,WeatherDisplay:10.37,2013-10-05 17:37:00,
2013-10-05 13:42:00,75.6,66.3,29.99,NNE,22,3.5,3.5,73,0.00,BKN,,0.00,WeatherDisplay:10.37,2013-10-05 17:42:00,
2013-10-05 13:47:00,75.6,65.9,29.98,ESE,112,2.3,2.3,72,0.00,BKN,,0.00,WeatherDisplay:10.37,2013-10-05 17:47:00,
2013-10-05 13:52:00,76.1,66.4,29.98,NE,45,0.0,0.8,72,0.00,BKN,,0.00,WeatherDisplay:10.37,2013-10-05 17:52:00,
2013-10-05 13:57:00,76.1,65.6,29.98,North,0,3.5,3.5,70,0.00,BKN,,0.00,WeatherDisplay:10.37,2013-10-05 17:57:00,
2013-10-05 14:02:00,76.5,66.4,29.98,SE,135,2.3,2.3,71,0.00,BKN,,0.00,WeatherDisplay:10.37,2013-10-05 18:02:00,
2013-10-05 14:07:00,76.5,65.9,29.97,SE,135,3.5,3.5,70,0.00,BKN,,0.00,WeatherDisplay:10.37,2013-10-05 18:07:00,
2013-10-05 14:12:00,76.6,65.7,29.97,ESE,112,3.5,3.5,69,0.00,BKN,,0.00,WeatherDisplay:10.37,2013-10-05 18:12:00,
2013-10-05 14:17:00,76.8,65.9,29.97,SE,135,3.5,3.5,69,0.00,BKN,,0.00,WeatherDisplay:10.37,2013-10-05 18:17:00,
2013-10-05 14:22:00,77.4,66.4,29.97,ENE,68,4.6,4.6,69,0.00,BKN,,0.00,WeatherDisplay:10.37,2013-10-05 18:22:00,
2013-10-05 14:27:00,77.5,66.1,29.97,SSE,158,5.8,5.8,68,0.00,BKN,,0.00,WeatherDisplay:10.37,2013-10-05 18:27:00,
2013-10-05 14:32:00,78.3,66.4,29.97,NE,45,4.6,4.6,67,0.00,BKN,,0.00,WeatherDisplay:10.37,2013-10-05 18:32:00,
2013-10-05 14:37:00,78.6,66.7,29.97,ESE,112,3.5,3.5,67,0.00,BKN,,0.00,WeatherDisplay:10.37,2013-10-05 18:37:00,
2013-10-05 14:42:00,79.2,66.4,29.97,ENE,68,2.5,2.5,65,0.00,BKN,,0.00,WeatherDisplay:10.37,2013-10-05 18:42:00,
2013-10-05 14:47:00,79.3,66.5,29.97,NNE,22,3.5,3.5,65,0.00,BKN,,0.00,WeatherDisplay:10.37,2013-10-05 18:47:00,
2013-10-05 14:52:00,79.0,66.2,29.97,ENE,68,5.8,5.8,65,0.00,BKN,,0.00,WeatherDisplay:10.37,2013-10-05 18:52:00,
2013-10-05 14:57:00,78.8,66.0,29.97,SE,135,2.5,2.8,65,0.00,BKN,,0.00,WeatherDisplay:10.37,2013-10-05 18:57:00,
2013-10-05 15:02:00,78.8,66.5,29.97,SSE,158,0.0,1.5,66,0.00,BKN,,0.00,WeatherDisplay:10.37,2013-10-05 19:02:00,
2013-10-05 15:07:00,78.8,66.0,29.97,SSE,158,3.5,3.5,65,0.00,BKN,,0.00,WeatherDisplay:10.37,2013-10-05 19:07:00,
2013-10-05 15:13:00,79.0,66.6,29.97,SSE,158,3.5,3.5,66,0.00,BKN,,0.00,WeatherDisplay:10.37,2013-10-05 19:13:00,
2013-10-05 15:18:00,79.0,66.2,29.97,ESE,112,2.3,2.3,65,0.00,BKN,,0.00,WeatherDisplay:10.37,2013-10-05 19:18:00,
2013-10-05 15:23:00,79.0,66.2,29.97,SE,135,2.3,2.3,65,0.00,BKN,,0.00,WeatherDisplay:10.37,2013-10-05 19:23:00,
2013-10-05 15:28:00,79.0,66.6,29.98,South,180,2.4,2.4,66,0.00,BKN,,0.00,WeatherDisplay:10.37,2013-10-05 19:28:00,
2013-10-05 15:33:00,79.3,67.0,29.98,SE,135,4.7,4.7,66,0.00,BKN,,0.00,WeatherDisplay:10.37,2013-10-05 19:33:00,
2013-10-05 15:38:00,79.0,65.8,29.98,ENE,68,4.7,4.7,64,0.00,BKN,,0.00,WeatherDisplay:10.37,2013-10-05 19:38:00,
2013-10-05 15:43:00,79.0,66.2,29.98,NE,45,2.3,2.3,65,0.00,BKN,,0.00,WeatherDisplay:10.37,2013-10-05 19:43:00,
2013-10-05 15:48:00,78.8,66.0,29.97,South,180,2.3,2.3,65,0.00,BKN,,0.00,WeatherDisplay:10.37,2013-10-05 19:48:00,
2013-10-05 15:53:00,79.0,66.2,29.97,ESE,112,3.8,3.8,65,0.00,BKN,,0.00,WeatherDisplay:10.37,2013-10-05 19:53:00,
2013-10-05 15:58:00,78.6,65.9,29.97,SSE,158,1.4,1.4,65,0.00,BKN,,0.00,WeatherDisplay:10.37,2013-10-05 19:58:00,
2013-10-05 16:03:00,78.6,66.3,29.97,SW,225,6.9,6.9,66,0.00,BKN,,0.00,WeatherDisplay:10.37,2013-10-05 20:03:00,
2013-10-05 16:08:00,78.8,66.5,29.97,South,180,6.9,6.9,66,0.00,BKN,,0.00,WeatherDisplay:10.37,2013-10-05 20:08:00,
2013-10-05 16:13:00,78.6,66.7,29.97,South,180,5.8,5.8,67,0.00,BKN,,0.00,WeatherDisplay:10.37,2013-10-05 20:13:00,
2013-10-05 16:18:00,78.1,66.2,29.97,SSE,158,4.6,4.6,67,0.00,BKN,,0.00,WeatherDisplay:10.37,2013-10-05 20:18:00,
2013-10-05 16:23:00,78.1,66.7,29.97,South,180,3.5,3.5,68,0.00,BKN,,0.00,WeatherDisplay:10.37,2013-10-05 20:23:00,
2013-10-05 16:28:00,77.9,66.5,29.97,ESE,112,3.5,3.5,68,0.00,BKN,,0.00,WeatherDisplay:10.37,2013-10-05 20:28:00,
2013-10-05 16:33:00,77.7,66.3,29.97,SSE,158,4.6,4.6,68,0.00,BKN,,0.00,WeatherDisplay:10.37,2013-10-05 20:33:00,
2013-10-05 16:38:00,77.5,66.1,29.97,South,180,3.5,3.5,68,0.00,BKN,,0.00,WeatherDisplay:10.37,2013-10-05 20:38:00,
2013-10-05 16:43:00,77.5,66.1,29.97,East,90,3.5,3.5,68,0.00,BKN,,0.00,WeatherDisplay:10.37,2013-10-05 20:43:00,
2013-10-05 16:48:00,77.4,66.4,29.97,South,180,4.6,4.6,69,0.00,BKN,,0.00,WeatherDisplay:10.37,2013-10-05 20:48:00,
2013-10-05 16:53:00,77.2,66.2,29.97,SSW,202,3.5,3.5,69,0.00,BKN,,0.00,WeatherDisplay:10.37,2013-10-05 20:53:00,
2013-10-05 16:58:00,77.2,66.2,29.97,SE,135,2.3,2.3,69,0.00,BKN,,0.00,WeatherDisplay:10.37,2013-10-05 20:58:00,
2013-10-05 17:03:00,76.8,65.9,29.97,SE,135,6.9,6.9,69,0.00,BKN,,0.00,WeatherDisplay:10.37,2013-10-05 21:03:00,
2013-10-05 17:08:00,76.8,65.5,29.97,SE,135,6.9,6.9,68,0.00,BKN,,0.00,WeatherDisplay:10.37,2013-10-05 21:08:00,
2013-10-05 17:13:00,76.6,65.7,29.97,South,180,3.5,3.5,69,0.00,BKN,,0.00,WeatherDisplay:10.37,2013-10-05 21:13:00,
2013-10-05 17:18:00,76.5,65.5,29.97,West,270,5.8,5.8,69,0.00,BKN,,0.00,WeatherDisplay:10.37,2013-10-05 21:18:00,
2013-10-05 17:23:00,76.3,65.4,29.97,South,180,3.5,3.5,69,0.00,BKN,,0.00,WeatherDisplay:10.37,2013-10-05 21:23:00,
2013-10-05 17:28:00,76.3,65.8,29.97,SSE,158,1.2,2.0,70,0.00,BKN,,0.00,WeatherDisplay:10.37,2013-10-05 21:28:00,
2013-10-05 17:33:00,76.1,65.2,29.97,ESE,112,3.5,3.5,69,0.00,BKN,,0.00,WeatherDisplay:10.37,2013-10-05 21:33:00,
2013-10-05 17:38:00,75.9,65.4,29.97,SE,135,2.3,2.3,70,0.00,BKN,,0.00,WeatherDisplay:10.37,2013-10-05 21:38:00,
2013-10-05 17:43:00,75.9,65.0,29.97,ESE,112,1.2,1.2,69,0.00,BKN,,0.00,WeatherDisplay:10.37,2013-10-05 21:43:00,
2013-10-05 17:48:00,75.9,65.4,29.97,East,90,3.5,3.5,70,0.00,BKN,,0.00,WeatherDisplay:10.37,2013-10-05 21:48:00,
2013-10-05 17:53:00,75.7,65.3,29.97,ESE,112,2.3,2.3,70,0.00,BKN,,0.00,WeatherDisplay:10.37,2013-10-05 21:53:00,
2013-10-05 17:58:00,75.6,65.1,29.97,SE,135,2.3,2.3,70,0.00,BKN,,0.00,WeatherDisplay:10.37,2013-10-05 21:58:00,
2013-10-05 18:03:00,75.4,64.9,29.97,East,90,2.3,2.3,70,0.00,BKN,,0.00,WeatherDisplay:10.37,2013-10-05 22:03:00,
2013-10-05 18:08:00,75.4,65.3,29.97,ESE,112,2.3,2.3,71,0.00,BKN,,0.00,WeatherDisplay:10.37,2013-10-05 22:08:00,
2013-10-05 18:13:00,74.8,64.8,29.97,ESE,112,3.5,3.5,71,0.00,BKN,,0.00,WeatherDisplay:10.37,2013-10-05 22:13:00,
2013-10-05 18:18:00,74.7,65.0,29.97,ESE,112,2.3,2.3,72,0.00,BKN,,0.00,WeatherDisplay:10.37,2013-10-05 22:18:00,
2013-10-05 18:23:00,74.7,65.0,29.97,ESE,112,4.6,4.6,72,0.00,BKN,,0.00,WeatherDisplay:10.37,2013-10-05 22:23:00,
2013-10-05 18:28:00,74.5,64.9,29.98,SE,135,2.3,2.5,72,0.00,BKN,,0.00,WeatherDisplay:10.37,2013-10-05 22:28:00,
2013-10-05 18:33:00,74.3,64.7,29.98,SE,135,3.5,3.5,72,0.00,BKN,,0.00,WeatherDisplay:10.37,2013-10-05 22:33:00,
2013-10-05 18:38:00,73.9,64.3,29.98,East,90,2.3,2.3,72,0.00,BKN,,0.00,WeatherDisplay:10.37,2013-10-05 22:38:00,
2013-10-05 18:43:00,73.8,64.6,29.98,SE,135,3.5,3.5,73,0.00,BKN,,0.00,WeatherDisplay:10.37,2013-10-05 22:43:00,
2013-10-05 18:48:00,73.6,64.4,29.98,SE,135,1.3,1.3,73,0.00,BKN,,0.00,WeatherDisplay:10.37,2013-10-05 22:48:00,
2013-10-05 18:53:00,73.4,64.6,29.98,East,90,2.3,2.3,74,0.00,BKN,,0.00,WeatherDisplay:10.37,2013-10-05 22:53:00,
2013-10-05 18:58:00,73.2,64.4,29.98,South,180,3.5,3.5,74,0.00,BKN,,0.00,WeatherDisplay:10.37,2013-10-05 22:58:00,
2013-10-05 19:03:00,73.2,64.4,29.98,NNE,22,2.3,2.3,74,0.00,BKN,,0.00,WeatherDisplay:10.37,2013-10-05 23:03:00,
2013-10-05 19:08:00,73.0,64.3,29.98,ENE,68,3.5,3.5,74,0.00,BKN,,0.00,WeatherDisplay:10.37,2013-10-05 23:08:00,
2013-10-05 19:13:00,72.9,64.5,29.98,SE,135,4.6,4.6,75,0.00,BKN,,0.00,WeatherDisplay:10.37,2013-10-05 23:13:00,
2013-10-05 19:18:00,72.5,64.1,29.98,ESE,112,2.3,2.3,75,0.00,BKN,,0.00,WeatherDisplay:10.37,2013-10-05 23:18:00,
2013-10-05 19:23:00,72.5,64.5,29.98,ESE,112,3.5,3.5,76,0.00,BKN,,0.00,WeatherDisplay:10.37,2013-10-05 23:23:00,
2013-10-05 19:28:00,72.1,64.2,29.98,ESE,112,2.3,2.3,76,0.00,BKN,,0.00,WeatherDisplay:10.37,2013-10-05 23:28:00,
2013-10-05 19:33:00,72.1,64.5,29.98,ESE,112,3.5,3.5,77,0.00,BKN,,0.00,WeatherDisplay:10.37,2013-10-05 23:33:00,
2013-10-05 19:38:00,71.8,63.8,29.98,SE,135,5.8,5.8,76,0.00,BKN,,0.00,WeatherDisplay:10.37,2013-10-05 23:38:00,
2013-10-05 19:43:00,71.6,64.0,29.98,SE,135,5.8,5.8,77,0.00,BKN,,0.00,WeatherDisplay:10.37,2013-10-05 23:43:00,
2013-10-05 19:48:00,71.4,63.8,29.99,ESE,112,2.3,2.9,77,0.00,BKN,,0.00,WeatherDisplay:10.37,2013-10-05 23:48:00,
2013-10-05 19:53:00,71.1,63.9,29.99,East,90,5.8,5.8,78,0.00,BKN,,0.00,WeatherDisplay:10.37,2013-10-05 23:53:00,
2013-10-05 19:58:00,70.9,64.0,29.99,SSE,158,3.5,3.5,79,0.00,BKN,,0.00,WeatherDisplay:10.37,2013-10-05 23:58:00,
2013-10-05 20:03:00,70.7,63.9,29.99,ENE,68,2.3,2.3,79,0.00,BKN,,0.00,WeatherDisplay:10.37,2013-10-06 00:03:00,
2013-10-05 20:08:00,70.7,63.9,29.99,SE,135,1.2,1.3,79,0.00,BKN,,0.00,WeatherDisplay:10.37,2013-10-06 00:08:00,
2013-10-05 20:13:00,70.3,63.9,29.99,SW,225,1.2,1.3,80,0.00,BKN,,0.00,WeatherDisplay:10.37,2013-10-06 00:13:00,
2013-10-05 20:18:00,70.3,63.9,29.99,East,90,2.3,2.3,80,0.00,BKN,,0.00,WeatherDisplay:10.37,2013-10-06 00:18:00,
2013-10-05 20:23:00,70.2,63.7,29.99,ESE,112,1.2,1.2,80,0.00,BKN,,0.00,WeatherDisplay:10.37,2013-10-06 00:23:00,
2013-10-05 20:28:00,70.0,63.5,30.00,SE,135,2.3,2.3,80,0.00,BKN,,0.00,WeatherDisplay:10.37,2013-10-06 00:28:00,
2013-10-05 20:33:00,70.0,63.9,30.00,ESE,112,2.3,2.3,81,0.00,BKN,,0.00,WeatherDisplay:10.37,2013-10-06 00:33:00,
2013-10-05 20:38:00,70.0,63.5,30.00,East,90,1.2,1.9,80,0.00,BKN,,0.00,WeatherDisplay:10.37,2013-10-06 00:38:00,
2013-10-05 20:43:00,70.0,63.9,30.00,SSE,158,2.3,2.3,81,0.00,BKN,,0.00,WeatherDisplay:10.37,2013-10-06 00:43:00,
2013-10-05 20:48:00,70.0,63.9,30.00,South,180,1.2,1.2,81,0.00,BKN,,0.00,WeatherDisplay:10.37,2013-10-06 00:48:00,
2013-10-05 20:53:00,69.8,63.7,30.00,SSE,158,3.5,3.5,81,0.00,BKN,,0.00,WeatherDisplay:10.37,2013-10-06 00:53:00,
2013-10-05 20:58:00,69.8,63.7,30.00,East,90,0.0,1.0,81,0.00,BKN,,0.00,WeatherDisplay:10.37,2013-10-06 00:58:00,
2013-10-05 21:03:00,70.0,63.9,30.00,SE,135,3.5,3.5,81,0.00,BKN,,0.00,WeatherDisplay:10.37,2013-10-06 01:03:00,
2013-10-05 21:08:00,70.0,63.9,30.00,SSE,158,2.3,2.3,81,0.00,BKN,,0.00,WeatherDisplay:10.37,2013-10-06 01:08:00,
2013-10-05 21:13:00,70.0,63.9,30.00,East,90,2.3,2.3,81,0.00,BKN,,0.00,WeatherDisplay:10.37,2013-10-06 01:13:00,
2013-10-05 21:18:00,69.8,63.7,30.00,ESE,112,6.9,6.9,81,0.00,BKN,,0.00,WeatherDisplay:10.37,2013-10-06 01:18:00,
2013-10-05 21:23:00,70.0,63.9,30.00,ESE,112,3.5,3.5,81,0.00,BKN,,0.00,WeatherDisplay:10.37,2013-10-06 01:23:00,
2013-10-05 21:28:00,69.6,63.5,30.00,South,180,1.2,2.2,81,0.00,BKN,,0.00,WeatherDisplay:10.37,2013-10-06 01:28:00,
2013-10-05 21:33:00,69.4,63.7,30.00,SSW,202,2.3,2.3,82,0.00,BKN,,0.00,WeatherDisplay:10.37,2013-10-06 01:33:00,
2013-10-05 21:38:00,69.4,63.7,30.00,SSE,158,1.2,1.2,82,0.00,BKN,,0.00,WeatherDisplay:10.37,2013-10-06 01:38:00,
2013-10-05 21:43:00,69.4,63.7,30.00,SE,135,3.5,3.5,82,0.00,BKN,,0.00,WeatherDisplay:10.37,2013-10-06 01:43:00,
2013-10-05 21:48:00,69.4,63.7,30.01,ESE,112,3.5,3.5,82,0.00,BKN,,0.00,WeatherDisplay:10.37,2013-10-06 01:48:00,
2013-10-05 21:53:00,69.6,63.9,30.01,SE,135,0.0,1.1,82,0.00,BKN,,0.00,WeatherDisplay:10.37,2013-10-06 01:53:00,
2013-10-05 21:58:00,69.4,63.7,30.01,ENE,68,3.5,3.5,82,0.00,BKN,,0.00,WeatherDisplay:10.37,2013-10-06 01:58:00,
2013-10-05 22:03:00,69.6,63.9,30.01,SSE,158,2.3,2.3,82,0.00,BKN,,0.00,WeatherDisplay:10.37,2013-10-06 02:03:00,
2013-10-05 22:08:00,69.4,63.7,30.02,ENE,68,3.5,3.5,82,0.00,BKN,,0.00,WeatherDisplay:10.37,2013-10-06 02:08:00,
2013-10-05 22:13:00,69.4,63.7,30.02,ESE,112,5.8,5.8,82,0.00,BKN,,0.00,WeatherDisplay:10.37,2013-10-06 02:13:00,
2013-10-05 22:18:00,69.6,63.9,30.02,SSE,158,5.8,5.8,82,0.00,BKN,,0.00,WeatherDisplay:10.37,2013-10-06 02:18:00,
2013-10-05 22:23:00,69.6,63.9,30.02,SE,135,4.6,4.6,82,0.00,BKN,,0.00,WeatherDisplay:10.37,2013-10-06 02:23:00,
2013-10-05 22:28:00,69.4,63.7,30.02,SE,135,3.5,3.5,82,0.00,BKN,,0.00,WeatherDisplay:10.37,2013-10-06 02:28:00,
2013-10-05 22:33:00,69.4,63.7,30.02,ESE,112,1.2,1.3,82,0.00,BKN,,0.00,WeatherDisplay:10.37,2013-10-06 02:33:00,
2013-10-05 22:38:00,69.4,63.7,30.02,ESE,112,3.5,3.5,82,0.00,BKN,,0.00,WeatherDisplay:10.37,2013-10-06 02:38:00,
2013-10-05 22:43:00,69.3,63.5,30.02,SE,135,0.0,1.0,82,0.00,BKN,,0.00,WeatherDisplay:10.37,2013-10-06 02:43:00,
2013-10-05 22:48:00,69.1,63.4,30.01,ESE,112,3.8,3.8,82,0.00,BKN,,0.00,WeatherDisplay:10.37,2013-10-06 02:48:00,
2013-10-05 22:53:00,69.8,64.1,30.01,ENE,68,4.6,4.6,82,0.00,BKN,,0.00,WeatherDisplay:10.37,2013-10-06 02:53:00,
2013-10-05 22:58:00,69.6,63.9,30.01,NW,315,2.3,2.3,82,0.00,BKN,,0.00,WeatherDisplay:10.37,2013-10-06 02:58:00,
2013-10-05 23:03:00,69.3,63.5,30.01,SSW,202,3.5,3.5,82,0.00,BKN,,0.00,WeatherDisplay:10.37,2013-10-06 03:03:00,
2013-10-05 23:08:00,69.3,63.5,30.02,East,90,0.0,0.5,82,0.00,BKN,,0.00,WeatherDisplay:10.37,2013-10-06 03:08:00,
2013-10-05 23:13:00,69.1,63.7,30.02,North,0,2.7,2.7,83,0.00,BKN,,0.00,WeatherDisplay:10.37,2013-10-06 03:13:00,
2013-10-05 23:18:00,69.1,63.7,30.02,ENE,68,2.3,2.3,83,0.00,BKN,,0.00,WeatherDisplay:10.37,2013-10-06 03:18:00,
2013-10-05 23:23:00,69.1,63.7,30.02,ESE,112,3.5,3.5,83,0.00,BKN,,0.00,WeatherDisplay:10.37,2013-10-06 03:23:00,
2013-10-05 23:28:00,69.1,63.7,30.02,South,180,2.3,2.3,83,0.00,BKN,,0.00,WeatherDisplay:10.37,2013-10-06 03:28:00,
2013-10-05 23:33:00,69.4,64.0,30.02,ENE,68,2.3,2.3,83,0.00,BKN,,0.00,WeatherDisplay:10.37,2013-10-06 03:33:00,
2013-10-05 23:38:00,69.3,63.9,30.02,ESE,112,3.9,3.9,83,0.00,BKN,,0.00,WeatherDisplay:10.37,2013-10-06 03:38:00,
2013-10-05 23:43:00,69.6,63.9,30.02,SE,135,3.5,3.5,82,0.00,BKN,,0.00,WeatherDisplay:10.37,2013-10-06 03:43:00,
2013-10-05 23:48:00,69.6,63.9,30.01,ENE,68,2.3,2.3,82,0.00,BKN,,0.00,WeatherDisplay:10.37,2013-10-06 03:48:00,
2013-10-05 23:53:00,69.3,63.5,30.01,South,180,3.5,3.5,82,0.00,BKN,,0.00,WeatherDisplay:10.37,2013-10-06 03:53:00,
2013-10-05 23:58:00,69.3,63.9,30.01,SSE,158,3.5,3.5,83,0.00,BKN,,0.00,WeatherDisplay:10.37,2013-10-06 03:58:00,